createdAt,value
2019-05-09T00:00:23.627Z,2.70
2019-05-09T00:05:22.534Z,3.20
2019-05-09T00:07:50.107Z,3.33
2019-05-09T00:10:18.875Z,3.00
2019-05-09T00:12:47.406Z,3.20
2019-05-09T00:15:16.261Z,3.17
2019-05-09T00:17:44.747Z,3.35
2019-05-09T00:20:33.348Z,3.25
2019-05-09T00:23:03.323Z,3.12
2019-05-09T00:25:33.862Z,3.25
2019-05-09T00:28:04.068Z,2.90
2019-05-09T00:30:50.683Z,2.50
2019-05-09T00:33:20.832Z,2.87
2019-05-09T00:35:49.292Z,2.75
2019-05-09T00:38:19.315Z,2.58
2019-05-09T00:40:56.018Z,2.30
2019-05-09T00:43:19.130Z,3.20
2019-05-09T00:46:03.833Z,2.80
2019-05-09T00:48:48.380Z,3.45
2019-05-09T00:51:16.868Z,3.25
2019-05-09T00:53:45.322Z,3.22
2019-05-09T00:56:13.852Z,3.02
2019-05-09T00:58:44.108Z,3.27
2019-05-09T01:01:14.043Z,3.55
2019-05-09T01:03:43.286Z,3.65
2019-05-09T01:06:13.367Z,3.40
2019-05-09T01:08:43.974Z,4.12
2019-05-09T01:11:15.299Z,3.30
2019-05-09T01:13:43.430Z,3.72
2019-05-09T01:16:13.385Z,3.80
2019-05-09T01:18:43.723Z,3.90
2019-05-09T01:21:13.406Z,3.83
2019-05-09T01:23:43.573Z,3.77
2019-05-09T01:26:13.206Z,3.80
2019-05-09T01:28:44.095Z,3.37
2019-05-09T01:31:13.253Z,3.90
2019-05-09T01:34:04.134Z,3.35
2019-05-09T01:36:50.264Z,4.03
2019-05-09T01:39:18.780Z,3.70
2019-05-09T01:41:47.234Z,3.95
2019-05-09T01:44:15.699Z,4.10
2019-05-09T01:46:44.184Z,3.72
2019-05-09T01:49:13.858Z,4.50
2019-05-09T01:51:44.329Z,3.90
2019-05-09T01:54:13.332Z,3.85
2019-05-09T01:56:43.077Z,3.90
2019-05-09T01:59:13.672Z,3.45
2019-05-09T02:04:13.503Z,4.25
2019-05-09T02:06:43.865Z,4.15
2019-05-09T02:09:13.872Z,4.40
2019-05-09T02:11:43.329Z,4.75
2019-05-09T02:14:14.196Z,4.83
2019-05-09T02:16:59.405Z,4.70
2019-05-09T02:19:39.181Z,4.53
2019-05-09T02:22:25.883Z,4.87
2019-05-09T02:24:54.339Z,5.40
2019-05-09T02:27:23.823Z,5.67
2019-05-09T02:29:54.416Z,4.85
2019-05-09T02:32:24.050Z,5.53
2019-05-09T02:34:54.769Z,5.50
2019-05-09T02:37:23.044Z,4.85
2019-05-09T02:39:51.500Z,5.70
2019-05-09T02:42:20.087Z,5.70
2019-05-09T02:44:49.392Z,6.00
2019-05-09T02:47:19.719Z,5.73
2019-05-09T02:49:48.687Z,4.58
2019-05-09T02:52:19.726Z,5.20
2019-05-09T02:54:50.095Z,4.65
2019-05-09T02:57:18.662Z,5.65
2019-05-09T02:59:54.888Z,5.83
2019-05-09T03:02:25.121Z,6.17
2019-05-09T03:04:54.244Z,5.60
2019-05-09T03:07:24.380Z,5.60
2019-05-09T03:09:52.885Z,5.65
2019-05-09T03:12:31.020Z,5.03
2019-05-09T03:14:51.729Z,4.40
2019-05-09T03:17:20.259Z,4.80
2019-05-09T03:19:48.932Z,5.78
2019-05-09T03:22:19.137Z,5.60
2019-05-09T03:24:48.558Z,5.12
2019-05-09T03:27:19.081Z,5.55
2019-05-09T03:29:49.252Z,5.33
2019-05-09T03:32:19.395Z,5.50
2019-05-09T03:34:47.916Z,5.97
2019-05-09T03:37:17.669Z,5.83
2019-05-09T03:39:47.784Z,5.92
2019-05-09T03:42:21.254Z,5.30
2019-05-09T03:47:21.159Z,5.20
2019-05-09T03:50:09.539Z,4.97
2019-05-09T03:52:38.131Z,4.80
2019-05-09T03:55:10.650Z,4.72
2019-05-09T03:57:40.760Z,5.17
2019-05-09T04:02:45.041Z,5.25
2019-05-09T04:05:13.779Z,4.78
2019-05-09T04:07:42.252Z,5.37
2019-05-09T04:10:10.931Z,4.83
2019-05-09T04:12:52.839Z,5.12
2019-05-09T04:15:10.181Z,5.25
2019-05-09T04:17:42.857Z,5.40
2019-05-09T04:20:12.956Z,5.50
2019-05-09T04:22:41.994Z,4.85
2019-05-09T04:25:12.599Z,5.17
2019-05-09T04:27:42.823Z,5.47
2019-05-09T04:30:11.606Z,4.75
2019-05-09T04:32:40.073Z,5.05
2019-05-09T04:35:08.894Z,4.83
2019-05-09T04:37:38.020Z,5.92
2019-05-09T04:40:08.342Z,5.17
2019-05-09T04:42:42.960Z,4.75
2019-05-09T04:45:17.819Z,5.03
2019-05-09T04:47:47.154Z,5.15
2019-05-09T04:50:23.634Z,4.57
2019-05-09T04:52:47.483Z,4.83
2019-05-09T04:55:18.211Z,5.70
2019-05-09T04:57:48.617Z,4.60
2019-05-09T05:02:51.916Z,5.25
2019-05-09T05:05:20.368Z,4.85
2019-05-09T05:07:48.923Z,5.10
2019-05-09T05:10:18.392Z,5.17
2019-05-09T05:12:48.445Z,5.20
2019-05-09T05:15:17.897Z,4.75
2019-05-09T05:20:18.625Z,5.08
2019-05-09T05:22:48.964Z,4.05
2019-05-09T05:25:17.925Z,5.47
2019-05-09T05:27:47.538Z,5.10
2019-05-09T05:30:17.950Z,5.10
2019-05-09T05:32:54.070Z,4.37
2019-05-09T05:35:33.394Z,4.92
2019-05-09T05:38:01.914Z,5.10
2019-05-09T05:40:33.721Z,4.47
2019-05-09T05:45:30.039Z,5.50
2019-05-09T05:48:07.824Z,4.92
2019-05-09T05:50:38.119Z,4.95
2019-05-09T05:53:07.987Z,5.35
2019-05-09T05:55:37.934Z,4.37
2019-05-09T05:58:08.655Z,4.97
2019-05-09T06:00:37.765Z,4.83
2019-05-09T06:03:08.565Z,4.90
2019-05-09T06:05:38.321Z,4.90
2019-05-09T06:08:08.209Z,4.22
2019-05-09T06:10:37.877Z,4.40
2019-05-09T06:13:07.973Z,4.60
2019-05-09T06:15:37.910Z,4.35
2019-05-09T06:18:07.939Z,4.25
2019-05-09T06:20:38.577Z,4.15
2019-05-09T06:23:08.591Z,3.80
2019-05-09T06:28:07.652Z,3.58
2019-05-09T06:30:40.882Z,3.62
2019-05-09T06:33:08.722Z,3.60
2019-05-09T06:35:37.964Z,3.98
2019-05-09T06:38:07.923Z,3.62
2019-05-09T06:40:38.299Z,3.77
2019-05-09T06:43:23.517Z,3.75
2019-05-09T06:45:53.756Z,3.40
2019-05-09T06:50:49.966Z,2.83
2019-05-09T06:53:18.495Z,3.50
2019-05-09T06:55:47.606Z,3.90
2019-05-09T06:58:31.851Z,3.27
2019-05-09T07:01:02.494Z,3.40
2019-05-09T07:03:37.422Z,3.17
2019-05-09T07:06:10.087Z,3.10
2019-05-09T07:08:40.311Z,3.20
2019-05-09T07:11:08.807Z,2.77
2019-05-09T07:13:38.194Z,2.60
2019-05-09T07:16:08.905Z,3.00
2019-05-09T07:18:38.285Z,2.72
2019-05-09T07:21:08.256Z,2.60
2019-05-09T07:23:37.458Z,2.60
2019-05-09T07:26:22.737Z,3.08
2019-05-09T07:28:51.299Z,3.22
2019-05-09T07:31:24.157Z,2.77
2019-05-09T07:34:11.108Z,2.62
2019-05-09T07:36:39.566Z,2.80
2019-05-09T07:39:08.814Z,2.45
2019-05-09T07:41:38.415Z,2.75
2019-05-09T07:44:07.720Z,2.80
2019-05-09T07:46:38.446Z,2.62
2019-05-09T07:49:08.595Z,2.98
2019-05-09T07:51:37.443Z,2.58
2019-05-09T07:54:20.638Z,2.30
2019-05-09T07:56:37.818Z,4.45
2019-05-09T08:01:38.442Z,3.75
2019-05-09T08:04:07.541Z,3.83
2019-05-09T08:06:37.954Z,3.37
2019-05-09T08:09:08.422Z,2.67
2019-05-09T08:11:37.643Z,2.37
2019-05-09T08:14:10.456Z,2.80
2019-05-09T08:19:07.555Z,2.87
2019-05-09T08:21:38.232Z,3.52
2019-05-09T08:24:08.430Z,2.87
2019-05-09T08:26:36.687Z,3.37
2019-05-09T08:29:05.432Z,2.65
2019-05-09T08:31:34.099Z,3.05
2019-05-09T08:34:03.362Z,3.33
2019-05-09T08:36:31.814Z,2.52
2019-05-09T08:39:00.614Z,2.37
2019-05-09T08:41:29.434Z,2.50
2019-05-09T08:43:58.067Z,2.90
2019-05-09T08:46:28.633Z,2.85
2019-05-09T08:48:57.576Z,2.67
2019-05-09T08:51:37.081Z,2.75
2019-05-09T08:54:01.370Z,3.00
2019-05-09T08:56:29.919Z,2.70
2019-05-09T08:59:01.969Z,2.72
2019-05-09T09:01:47.790Z,2.47
2019-05-09T09:03:58.932Z,2.15
2019-05-09T09:06:27.905Z,2.40
2019-05-09T09:08:57.590Z,2.35
2019-05-09T09:11:28.063Z,2.72
2019-05-09T09:13:57.682Z,2.30
2019-05-09T09:16:28.371Z,2.22
2019-05-09T09:18:58.342Z,2.60
2019-05-09T09:21:28.633Z,2.12
2019-05-09T09:23:58.189Z,2.42
2019-05-09T09:26:27.876Z,2.75
2019-05-09T09:28:57.727Z,2.58
2019-05-09T09:31:28.451Z,2.12
2019-05-09T09:33:58.504Z,2.10
2019-05-09T09:36:28.102Z,2.72
2019-05-09T09:38:58.659Z,2.37
2019-05-09T09:41:28.704Z,2.25
2019-05-09T09:43:58.225Z,2.17
2019-05-09T09:46:28.568Z,2.42
2019-05-09T09:51:27.593Z,2.15
2019-05-09T09:53:58.246Z,2.30
2019-05-09T09:56:28.191Z,2.72
2019-05-09T09:58:58.688Z,2.08
2019-05-09T10:01:29.049Z,1.72
2019-05-09T10:04:19.413Z,2.27
2019-05-09T10:06:41.801Z,2.20
2019-05-09T10:09:10.536Z,1.98
2019-05-09T10:11:39.040Z,2.47
2019-05-09T10:14:09.454Z,2.00
2019-05-09T10:16:48.486Z,2.10
2019-05-09T10:19:18.716Z,1.80
2019-05-09T10:24:19.807Z,1.52
2019-05-09T10:27:08.872Z,1.85
2019-05-09T10:29:38.828Z,1.62
2019-05-09T10:32:09.079Z,1.90
2019-05-09T10:34:37.868Z,2.20
2019-05-09T10:37:07.748Z,2.17
2019-05-09T10:39:38.093Z,2.10
2019-05-09T10:44:40.805Z,2.00
2019-05-09T10:47:13.612Z,1.50
2019-05-09T10:49:42.140Z,1.75
2019-05-09T10:52:14.242Z,1.87
2019-05-09T10:54:40.889Z,1.80
2019-05-09T10:57:09.411Z,1.57
2019-05-09T10:59:37.876Z,1.70
2019-05-09T11:02:09.555Z,1.50
2019-05-09T11:04:37.931Z,1.70
2019-05-09T11:07:08.080Z,1.70
2019-05-09T11:09:39.039Z,1.90
2019-05-09T11:14:37.596Z,1.60
2019-05-09T11:17:12.456Z,1.90
2019-05-09T11:19:36.636Z,2.08
2019-05-09T11:22:07.841Z,1.87
2019-05-09T11:24:44.911Z,1.70
2019-05-09T11:27:08.291Z,1.95
2019-05-09T11:29:35.730Z,2.45
2019-05-09T11:32:04.554Z,1.40
2019-05-09T11:34:33.619Z,1.57
2019-05-09T11:37:02.185Z,1.40
2019-05-09T11:39:38.236Z,1.77
2019-05-09T11:42:00.944Z,1.90
2019-05-09T11:44:29.512Z,1.50
2019-05-09T11:46:58.341Z,1.60
2019-05-09T11:49:29.445Z,1.55
2019-05-09T11:51:57.755Z,1.37
2019-05-09T11:54:27.966Z,1.32
2019-05-09T11:56:57.630Z,1.30
2019-05-09T11:59:28.013Z,1.47
2019-05-09T12:01:58.618Z,1.55
2019-05-09T12:04:28.177Z,1.40
2019-05-09T12:06:57.702Z,1.10
2019-05-09T12:09:28.649Z,1.40
2019-05-09T12:11:58.825Z,1.20
2019-05-09T12:16:56.307Z,1.33
2019-05-09T12:19:24.785Z,1.10
2019-05-09T12:21:53.369Z,1.20
2019-05-09T12:24:21.826Z,1.20
2019-05-09T12:26:50.280Z,1.00
2019-05-09T12:29:19.551Z,1.67
2019-05-09T12:31:48.731Z,1.00
2019-05-09T12:34:19.271Z,1.20
2019-05-09T12:39:18.849Z,1.10
2019-05-09T12:41:48.434Z,1.35
2019-05-09T12:44:18.274Z,1.70
2019-05-09T12:46:48.798Z,1.85
2019-05-09T12:49:18.892Z,2.22
2019-05-09T12:51:47.515Z,1.77
2019-05-09T12:54:15.982Z,1.87
2019-05-09T12:56:44.569Z,1.60
2019-05-09T12:59:13.034Z,1.80
2019-05-09T13:01:41.702Z,1.42
2019-05-09T13:04:10.527Z,2.33
2019-05-09T13:06:39.291Z,1.70
2019-05-09T13:09:08.440Z,1.40
2019-05-09T13:11:39.026Z,1.50
2019-05-09T13:16:48.469Z,1.65
2019-05-09T13:19:18.483Z,1.27
2019-05-09T13:21:46.642Z,1.57
2019-05-09T13:24:19.229Z,1.40
2019-05-09T13:26:47.937Z,1.50
2019-05-09T13:29:16.621Z,1.20
2019-05-09T13:31:45.150Z,1.10
2019-05-09T13:34:13.725Z,1.20
2019-05-09T13:36:42.290Z,1.87
2019-05-09T13:39:10.880Z,1.52
2019-05-09T13:41:40.113Z,1.50
2019-05-09T13:44:13.642Z,1.60
2019-05-09T13:49:12.449Z,1.20
2019-05-09T13:51:47.517Z,1.02
2019-05-09T13:56:35.676Z,1.02
2019-05-09T13:59:04.323Z,0.98
2019-05-09T14:01:32.854Z,1.20
2019-05-09T14:04:02.152Z,1.35
2019-05-09T14:06:30.802Z,1.37
2019-05-09T14:08:59.961Z,1.65
2019-05-09T14:11:29.257Z,1.32
2019-05-09T14:13:58.064Z,1.77
2019-05-09T14:16:28.682Z,1.72
2019-05-09T14:19:00.643Z,2.17
2019-05-09T14:24:10.052Z,1.30
2019-05-09T14:26:25.046Z,1.85
2019-05-09T14:28:53.558Z,1.55
2019-05-09T14:31:22.018Z,1.87
2019-05-09T14:33:50.528Z,1.50
2019-05-09T14:36:19.218Z,1.60
2019-05-09T14:38:48.440Z,1.65
2019-05-09T14:41:19.089Z,1.70
2019-05-09T14:43:48.253Z,1.50
2019-05-09T14:46:18.185Z,1.57
2019-05-09T14:48:48.232Z,1.70
2019-05-09T14:51:18.658Z,1.77
2019-05-09T14:56:16.876Z,1.97
2019-05-09T14:58:48.422Z,1.45
2019-05-09T15:01:19.323Z,0.85
2019-05-09T15:06:18.199Z,1.60
2019-05-09T15:11:14.231Z,1.10
2019-05-09T15:13:42.770Z,1.52
2019-05-09T15:16:11.313Z,1.30
2019-05-09T15:18:39.874Z,1.55
2019-05-09T15:21:08.337Z,1.37
2019-05-09T15:23:39.086Z,1.30
2019-05-09T15:28:38.459Z,0.93
2019-05-09T15:31:08.909Z,1.35
2019-05-09T15:36:06.216Z,1.40
2019-05-09T15:38:34.748Z,1.40
2019-05-09T15:41:03.537Z,1.20
2019-05-09T15:43:32.332Z,1.65
2019-05-09T15:46:11.503Z,1.35
2019-05-09T15:48:40.103Z,1.47
2019-05-09T15:51:08.605Z,1.32
2019-05-09T15:53:38.107Z,1.15
2019-05-09T15:56:07.987Z,1.15
2019-05-09T15:58:38.537Z,1.20
2019-05-09T16:01:08.252Z,1.52
2019-05-09T16:03:38.287Z,1.40
2019-05-09T16:06:09.084Z,1.12
2019-05-09T16:11:08.733Z,1.85
2019-05-09T16:13:37.315Z,1.37
2019-05-09T16:16:08.805Z,1.22
2019-05-09T16:21:04.058Z,1.50
2019-05-09T16:23:32.493Z,1.52
2019-05-09T16:26:00.942Z,1.47
2019-05-09T16:28:29.452Z,6.90
2019-05-09T16:30:58.526Z,1.95
2019-05-09T16:33:27.926Z,1.70
2019-05-09T16:35:56.558Z,1.40
2019-05-09T16:38:39.621Z,1.50
2019-05-09T16:43:22.940Z,1.22
2019-05-09T16:45:51.520Z,1.60
2019-05-09T16:48:19.985Z,1.40
2019-05-09T16:51:00.683Z,1.65
2019-05-09T16:53:18.748Z,1.52
2019-05-09T16:55:47.566Z,1.52
2019-05-09T16:58:18.608Z,1.40
2019-05-09T17:00:48.629Z,1.62
2019-05-09T17:03:17.771Z,2.00
2019-05-09T17:05:46.677Z,1.87
2019-05-09T17:08:17.564Z,1.85
2019-05-09T17:10:48.383Z,1.77
2019-05-09T17:15:43.591Z,1.30
2019-05-09T17:18:12.113Z,1.60
2019-05-09T17:21:14.910Z,1.70
2019-05-09T17:23:30.698Z,1.82
2019-05-09T17:25:59.190Z,1.72
2019-05-09T17:28:28.460Z,1.50
2019-05-09T17:30:57.935Z,1.77
2019-05-09T17:33:28.742Z,1.70
2019-05-09T17:38:27.827Z,1.62
2019-05-09T17:40:57.687Z,1.72
2019-05-09T17:43:27.813Z,1.60
2019-05-09T17:45:58.378Z,1.47
2019-05-09T17:48:28.502Z,1.67
2019-05-09T17:50:57.887Z,2.20
2019-05-09T17:53:29.358Z,1.52
2019-05-09T17:55:58.657Z,1.85
2019-05-09T18:00:58.120Z,1.60
2019-05-09T18:05:57.739Z,1.55
2019-05-09T18:10:58.067Z,1.52
2019-05-09T18:15:55.397Z,1.95
2019-05-09T18:18:23.933Z,1.45
2019-05-09T18:20:52.395Z,2.10
2019-05-09T18:23:20.856Z,1.80
2019-05-09T18:25:49.675Z,1.67
2019-05-09T18:28:18.167Z,2.20
2019-05-09T18:30:47.783Z,2.30
2019-05-09T18:33:18.130Z,2.55
2019-05-09T18:35:47.775Z,1.98
2019-05-09T18:38:25.135Z,2.25
2019-05-09T18:40:53.659Z,2.40
2019-05-09T18:43:22.245Z,2.30
2019-05-09T18:45:50.775Z,2.60
2019-05-09T18:48:19.303Z,2.30
2019-05-09T18:50:47.886Z,2.27
2019-05-09T18:53:16.352Z,2.20
2019-05-09T18:55:44.855Z,2.70
2019-05-09T18:58:13.388Z,2.55
2019-05-09T19:00:42.641Z,2.55
2019-05-09T19:03:11.302Z,2.62
2019-05-09T19:05:39.829Z,2.40
2019-05-09T19:08:08.653Z,3.02
2019-05-09T19:10:37.179Z,2.90
2019-05-09T19:13:06.049Z,2.90
2019-05-09T19:15:36.205Z,2.83
2019-05-09T19:18:09.500Z,2.55
2019-05-09T19:20:39.709Z,2.80
2019-05-09T19:23:08.582Z,3.00
2019-05-09T19:25:37.041Z,3.27
2019-05-09T19:28:05.886Z,3.22
2019-05-09T19:30:34.404Z,3.55
2019-05-09T19:33:03.263Z,3.40
2019-05-09T19:35:31.720Z,3.20
2019-05-09T19:38:00.180Z,3.30
2019-05-09T19:40:28.742Z,3.20
2019-05-09T19:42:57.205Z,3.45
2019-05-09T19:45:25.789Z,3.50
2019-05-09T19:47:54.274Z,3.33
2019-05-09T19:50:22.840Z,3.45
2019-05-09T19:52:51.351Z,3.27
2019-05-09T19:55:19.810Z,3.10
2019-05-09T19:57:48.266Z,3.33
2019-05-09T20:00:18.349Z,3.37
2019-05-09T20:02:46.794Z,3.35
2019-05-09T20:05:15.500Z,3.60
2019-05-09T20:07:44.079Z,3.17
2019-05-09T20:10:14.407Z,3.05
2019-05-09T20:15:22.839Z,3.08
2019-05-09T20:17:51.358Z,3.20
2019-05-09T20:20:19.810Z,3.20
2019-05-09T20:22:52.999Z,3.40
2019-05-09T20:25:18.565Z,3.70
2019-05-09T20:27:47.039Z,3.60
2019-05-09T20:30:15.691Z,3.83
2019-05-09T20:32:44.202Z,4.00
2019-05-09T20:35:12.657Z,3.50
2019-05-09T20:37:41.370Z,3.45
2019-05-09T20:40:10.711Z,3.67
2019-05-09T20:42:39.354Z,4.08
2019-05-09T20:45:08.318Z,3.90
2019-05-09T20:47:37.007Z,3.50
2019-05-09T20:50:09.061Z,3.55
2019-05-09T20:52:37.776Z,3.80
2019-05-09T20:55:06.857Z,4.03
2019-05-09T20:57:35.522Z,3.60
2019-05-09T21:00:07.087Z,4.12
2019-05-09T21:02:35.727Z,3.22
2019-05-09T21:05:06.517Z,4.35
2019-05-09T21:07:35.391Z,4.00
2019-05-09T21:10:07.211Z,3.45
2019-05-09T21:12:35.886Z,3.80
2019-05-09T21:15:08.989Z,3.65
2019-05-09T21:17:37.625Z,3.62
2019-05-09T21:20:07.447Z,3.55
2019-05-09T21:22:36.110Z,3.70
2019-05-09T21:25:07.278Z,4.10
2019-05-09T21:27:35.953Z,4.03
2019-05-09T21:30:06.504Z,4.03
2019-05-09T21:32:35.203Z,4.00
2019-05-09T21:35:04.286Z,4.50
2019-05-09T21:37:32.748Z,4.10
2019-05-09T21:40:01.241Z,3.75
2019-05-09T21:42:29.730Z,4.00
2019-05-09T21:44:58.176Z,4.03
2019-05-09T21:47:26.953Z,3.95
2019-05-09T21:49:55.470Z,3.87
2019-05-09T21:52:24.265Z,3.75
2019-05-09T21:54:52.758Z,3.80
2019-05-09T21:57:21.341Z,3.58
2019-05-09T21:59:49.879Z,4.37
2019-05-09T22:02:18.451Z,4.85
2019-05-09T22:04:46.982Z,4.58
2019-05-09T22:07:15.730Z,4.95
2019-05-09T22:09:44.258Z,4.90
2019-05-09T22:12:12.794Z,4.15
2019-05-09T22:14:41.369Z,4.47
2019-05-09T22:17:11.474Z,4.35
2019-05-09T22:19:39.931Z,3.80
2019-05-09T22:22:08.771Z,3.92
2019-05-09T22:24:37.285Z,5.45
2019-05-09T22:27:05.902Z,5.20
2019-05-09T22:29:34.404Z,5.22
2019-05-09T22:32:02.903Z,4.83
2019-05-09T22:34:31.362Z,5.25
2019-05-09T22:36:59.880Z,5.67
2019-05-09T22:39:28.462Z,4.85
2019-05-09T22:41:56.928Z,5.00
2019-05-09T22:44:25.450Z,5.70
2019-05-09T22:46:53.943Z,5.15
2019-05-09T22:49:22.439Z,5.22
2019-05-09T22:51:50.884Z,4.97
2019-05-09T22:54:19.394Z,4.70
2019-05-09T22:56:47.850Z,4.95
2019-05-09T22:59:16.324Z,5.15
2019-05-09T23:01:44.872Z,4.22
2019-05-09T23:04:13.567Z,4.55
2019-05-09T23:06:42.104Z,4.80
2019-05-09T23:09:10.569Z,4.70
2019-05-09T23:11:39.059Z,5.47
2019-05-09T23:14:07.518Z,4.83
2019-05-09T23:16:37.857Z,4.92
2019-05-09T23:21:34.024Z,4.65
2019-05-09T23:24:10.222Z,5.25
2019-05-09T23:26:38.712Z,5.42
2019-05-09T23:29:07.259Z,4.67
2019-05-09T23:31:40.259Z,4.90
2019-05-09T23:34:08.710Z,5.10
2019-05-09T23:36:37.157Z,5.75
2019-05-09T23:39:25.975Z,6.17
2019-05-09T23:41:54.599Z,5.50
2019-05-09T23:44:23.089Z,5.53
2019-05-09T23:46:51.534Z,5.83
2019-05-09T23:49:20.031Z,6.03
2019-05-09T23:51:50.206Z,6.83
2019-05-09T23:54:46.695Z,5.65
2019-05-09T23:57:29.969Z,6.53
